Orange8 — JL6278 — position and weather

sailwx.info

Track history (hours):
 
Tides and Currents Weather Stations Pressure Air Temp Water Temp Dewpoint Dewpoint Depression Visibility Wind Speed Wind Dir Waves Ship Positions

Orange8

Last reported at 2016-Dec-09 14:33 UTC. Time now 2016-Dec-10 16:42 UTC.
Position N 34°37' E 134°58'.

Length 164 m; draft 5 m.

Type: Passenger vessel. MMSI: 431501603.

Date/timePositionNaut miles runAvg speedWind from/ knotsBaromVisibWave heightAir tempDewpointWater temp
2016-Dec-09 14:33N 34°37' E 134°58'1716.8
2016-Dec-09 13:34N 34°36' E 135°19'6 5.0
2016-Dec-09 12:21N 34°37' E 135°26'0 0.0
2016-Dec-09 11:33N 34°37' E 135°26'0 0.0
2016-Dec-09 10:33N 34°37' E 135°26'0 0.0
2016-Dec-09 09:21N 34°37' E 135°26'0 0.0
2016-Dec-09 08:15N 34°37' E 135°26'0 0.0
2016-Dec-09 07:33N 34°37' E 135°26'0 0.0
2016-Dec-09 06:33N 34°37' E 135°26'0 0.0
2016-Dec-09 05:33N 34°37' E 135°26'0 0.0
2016-Dec-09 04:33N 34°37' E 135°26'0 0.0
2016-Dec-09 03:33N 34°37' E 135°26'0 0.0
2016-Dec-09 02:27N 34°37' E 135°26'0 0.0
2016-Dec-09 01:33N 34°37' E 135°26'0 0.0
2016-Dec-09 00:33N 34°37' E 135°26'0 0.0
2016-Dec-08 23:33N 34°37' E 135°26'0 0.0
2016-Dec-08 22:27N 34°37' E 135°26'0 0.0
2016-Dec-08 21:33N 34°37' E 135°26'5 5.5
2016-Dec-08 20:33N 34°36' E 135°19'1817.9
2016-Dec-08 19:33N 34°37' E 134°58'1 0.0
2016-Dec-07 14:33N 34°37' E 134°57'1818.0
2016-Dec-07 13:33N 34°37' E 135°18'6 5.6
2016-Dec-07 12:28N 34°37' E 135°26'0 0.0
2016-Dec-07 11:28N 34°37' E 135°26'0 0.0
2016-Dec-07 10:28N 34°37' E 135°26'0 0.0
2016-Dec-07 09:22N 34°37' E 135°26'0 0.0
2016-Dec-07 08:16N 34°37' E 135°26'0 0.0
2016-Dec-07 07:28N 34°37' E 135°26'0 0.0
2016-Dec-07 06:28N 34°37' E 135°26'0 0.0
2016-Dec-07 05:16N 34°37' E 135°26'0 0.0
2016-Dec-07 04:28N 34°37' E 135°26'0 0.0
2016-Dec-07 03:28N 34°37' E 135°26'0 0.0
2016-Dec-07 02:10N 34°37' E 135°26'0 0.0
2016-Dec-07 01:28N 34°37' E 135°26'0 0.0
2016-Dec-07 00:16N 34°37' E 135°26'0 0.0
2016-Dec-06 23:22N 34°37' E 135°26'0 0.0
2016-Dec-06 22:28N 34°37' E 135°26'0 0.0
2016-Dec-06 21:14N 34°37' E 135°26'6 9.1
2016-Dec-06 20:33N 34°36' E 135°19'18 0.6
2016-Dec-05 14:33N 34°37' E 134°57'1818.2
2016-Dec-05 13:33N 34°37' E 135°19'5 5.3
2016-Dec-05 12:33N 34°37' E 135°26'0 0.0
2016-Dec-05 11:33N 34°37' E 135°26'0 0.0
2016-Dec-05 10:33N 34°37' E 135°26'0 0.0
2016-Dec-05 09:33N 34°37' E 135°26'0 0.0
2016-Dec-05 08:33N 34°37' E 135°26'0 0.0
2016-Dec-05 07:33N 34°37' E 135°26'0 0.0
2016-Dec-05 06:21N 34°37' E 135°26'0 0.0
2016-Dec-05 05:33N 34°37' E 135°26'0 0.0
2016-Dec-05 04:33N 34°37' E 135°26'0 0.0
2016-Dec-05 03:33N 34°37' E 135°26'0 0.0
2016-Dec-05 02:33N 34°37' E 135°26'0 0.0
2016-Dec-05 01:33N 34°37' E 135°26'0 0.0
2016-Dec-05 00:33N 34°37' E 135°26'0 0.0
2016-Dec-04 23:33N 34°37' E 135°26'0 0.0
2016-Dec-04 22:33N 34°37' E 135°26'0 0.0
2016-Dec-04 21:33N 34°37' E 135°26'5 5.4
2016-Dec-04 20:33N 34°36' E 135°20'1818.1
2016-Dec-04 19:33N 34°36' E 134°57'2 0.1
2016-Dec-03 14:33N 34°36' E 134°54'2019.5
2016-Dec-03 13:33N 34°36' E 135°18'6 6.2
2016-Dec-03 12:31N 34°37' E 135°26'0 0.0
2016-Dec-03 11:25N 34°37' E 135°26'0 0.0
2016-Dec-03 10:07N 34°37' E 135°26'0 0.0
2016-Dec-03 09:31N 34°37' E 135°26'0 0.0
2016-Dec-03 08:25N 34°37' E 135°26'0 0.0
2016-Dec-03 07:31N 34°37' E 135°26'0 0.0
2016-Dec-03 06:31N 34°37' E 135°26'0 0.0
2016-Dec-03 05:31N 34°37' E 135°26'0 0.0
2016-Dec-03 04:31N 34°37' E 135°26'0 0.0
2016-Dec-03 03:25N 34°37' E 135°26'0 0.0
2016-Dec-03 02:31N 34°37' E 135°26'0 0.0
2016-Dec-03 01:31N 34°37' E 135°26'0 0.0
2016-Dec-03 00:31N 34°37' E 135°26'0 0.0
2016-Dec-02 23:31N 34°37' E 135°26'0 0.0
2016-Dec-02 22:25N 34°37' E 135°26'0 0.0
2016-Dec-02 21:31N 34°37' E 135°26'5 5.4
2016-Dec-02 20:33N 34°36' E 135°20'1818.2
2016-Dec-02 19:33N 34°37' E 134°58'1 0.0
2016-Dec-01 14:33N 34°37' E 134°58'1818.4
2016-Dec-01 13:33N 34°37' E 135°21'4 3.9
2016-Dec-01 12:25N 34°37' E 135°26'0 0.0
2016-Dec-01 11:31N 34°37' E 135°26'0 0.0
2016-Dec-01 10:31N 34°37' E 135°26'0 0.0
2016-Dec-01 09:31N 34°37' E 135°26'0 0.0
2016-Dec-01 08:25N 34°37' E 135°26'0 0.0
2016-Dec-01 07:16N 34°37' E 135°26'0 0.0
2016-Dec-01 06:28N 34°37' E 135°26'0 0.0
2016-Dec-01 05:28N 34°37' E 135°26'0 0.0
2016-Dec-01 04:04N 34°37' E 135°26'0 0.0
2016-Dec-01 03:28N 34°37' E 135°26'0 0.0
2016-Dec-01 02:16N 34°37' E 135°26'0 0.0
2016-Dec-01 01:28N 34°37' E 135°26'0 0.0
2016-Dec-01 00:28N 34°37' E 135°26'0 0.0
2016-Nov-30 22:28N 34°37' E 135°26'0 0.0
2016-Nov-30 21:22N 34°37' E 135°26'5 6.3
2016-Nov-30 20:33N 34°36' E 135°20'1817.9
2016-Nov-30 19:33N 34°37' E 134°58'  
Track history (hours):
 
Tides and Currents Weather Stations Pressure Air Temp Water Temp Dewpoint Dewpoint Depression Visibility Wind Speed Wind Dir Waves Ship Positions

Orange8

Last reported at 2016-Dec-09 14:33 UTC. Time now 2016-Dec-10 16:42 UTC.
Position N 34°37' E 134°58'.

Length 164 m; draft 5 m.

Type: Passenger vessel. MMSI: 431501603.

Date/timePositionNaut miles runAvg speedWind from/ knotsBaromVisibWave heightAir tempDewpointWater temp
2016-Dec-09 14:33N 34°37' E 134°58'1716.8
2016-Dec-09 13:34N 34°36' E 135°19'6 5.0
2016-Dec-09 12:21N 34°37' E 135°26'0 0.0
2016-Dec-09 11:33N 34°37' E 135°26'0 0.0
2016-Dec-09 10:33N 34°37' E 135°26'0 0.0
2016-Dec-09 09:21N 34°37' E 135°26'0 0.0
2016-Dec-09 08:15N 34°37' E 135°26'0 0.0
2016-Dec-09 07:33N 34°37' E 135°26'0 0.0
2016-Dec-09 06:33N 34°37' E 135°26'0 0.0
2016-Dec-09 05:33N 34°37' E 135°26'0 0.0
2016-Dec-09 04:33N 34°37' E 135°26'0 0.0
2016-Dec-09 03:33N 34°37' E 135°26'0 0.0
2016-Dec-09 02:27N 34°37' E 135°26'0 0.0
2016-Dec-09 01:33N 34°37' E 135°26'0 0.0
2016-Dec-09 00:33N 34°37' E 135°26'0 0.0
2016-Dec-08 23:33N 34°37' E 135°26'0 0.0
2016-Dec-08 22:27N 34°37' E 135°26'0 0.0
2016-Dec-08 21:33N 34°37' E 135°26'5 5.5
2016-Dec-08 20:33N 34°36' E 135°19'1817.9
2016-Dec-08 19:33N 34°37' E 134°58'1 0.0
2016-Dec-07 14:33N 34°37' E 134°57'1818.0
2016-Dec-07 13:33N 34°37' E 135°18'6 5.6
2016-Dec-07 12:28N 34°37' E 135°26'0 0.0
2016-Dec-07 11:28N 34°37' E 135°26'0 0.0
2016-Dec-07 10:28N 34°37' E 135°26'0 0.0
2016-Dec-07 09:22N 34°37' E 135°26'0 0.0
2016-Dec-07 08:16N 34°37' E 135°26'0 0.0
2016-Dec-07 07:28N 34°37' E 135°26'0 0.0
2016-Dec-07 06:28N 34°37' E 135°26'0 0.0
2016-Dec-07 05:16N 34°37' E 135°26'0 0.0
2016-Dec-07 04:28N 34°37' E 135°26'0 0.0
2016-Dec-07 03:28N 34°37' E 135°26'0 0.0
2016-Dec-07 02:10N 34°37' E 135°26'0 0.0
2016-Dec-07 01:28N 34°37' E 135°26'0 0.0
2016-Dec-07 00:16N 34°37' E 135°26'0 0.0
2016-Dec-06 23:22N 34°37' E 135°26'0 0.0
2016-Dec-06 22:28N 34°37' E 135°26'0 0.0
2016-Dec-06 21:14N 34°37' E 135°26'6 9.1
2016-Dec-06 20:33N 34°36' E 135°19'18 0.6
2016-Dec-05 14:33N 34°37' E 134°57'1818.2
2016-Dec-05 13:33N 34°37' E 135°19'5 5.3
2016-Dec-05 12:33N 34°37' E 135°26'0 0.0
2016-Dec-05 11:33N 34°37' E 135°26'0 0.0
2016-Dec-05 10:33N 34°37' E 135°26'0 0.0
2016-Dec-05 09:33N 34°37' E 135°26'0 0.0
2016-Dec-05 08:33N 34°37' E 135°26'0 0.0
2016-Dec-05 07:33N 34°37' E 135°26'0 0.0
2016-Dec-05 06:21N 34°37' E 135°26'0 0.0
2016-Dec-05 05:33N 34°37' E 135°26'0 0.0
2016-Dec-05 04:33N 34°37' E 135°26'0 0.0
2016-Dec-05 03:33N 34°37' E 135°26'0 0.0
2016-Dec-05 02:33N 34°37' E 135°26'0 0.0
2016-Dec-05 01:33N 34°37' E 135°26'0 0.0
2016-Dec-05 00:33N 34°37' E 135°26'0 0.0
2016-Dec-04 23:33N 34°37' E 135°26'0 0.0
2016-Dec-04 22:33N 34°37' E 135°26'0 0.0
2016-Dec-04 21:33N 34°37' E 135°26'5 5.4
2016-Dec-04 20:33N 34°36' E 135°20'1818.1
2016-Dec-04 19:33N 34°36' E 134°57'2 0.1
2016-Dec-03 14:33N 34°36' E 134°54'2019.5
2016-Dec-03 13:33N 34°36' E 135°18'6 6.2
2016-Dec-03 12:31N 34°37' E 135°26'0 0.0
2016-Dec-03 11:25N 34°37' E 135°26'0 0.0
2016-Dec-03 10:07N 34°37' E 135°26'0 0.0
2016-Dec-03 09:31N 34°37' E 135°26'0 0.0
2016-Dec-03 08:25N 34°37' E 135°26'0 0.0
2016-Dec-03 07:31N 34°37' E 135°26'0 0.0
2016-Dec-03 06:31N 34°37' E 135°26'0 0.0
2016-Dec-03 05:31N 34°37' E 135°26'0 0.0
2016-Dec-03 04:31N 34°37' E 135°26'0 0.0
2016-Dec-03 03:25N 34°37' E 135°26'0 0.0
2016-Dec-03 02:31N 34°37' E 135°26'0 0.0
2016-Dec-03 01:31N 34°37' E 135°26'0 0.0
2016-Dec-03 00:31N 34°37' E 135°26'0 0.0
2016-Dec-02 23:31N 34°37' E 135°26'0 0.0
2016-Dec-02 22:25N 34°37' E 135°26'0 0.0
2016-Dec-02 21:31N 34°37' E 135°26'5 5.4
2016-Dec-02 20:33N 34°36' E 135°20'1818.2
2016-Dec-02 19:33N 34°37' E 134°58'1 0.0
2016-Dec-01 14:33N 34°37' E 134°58'1818.4
2016-Dec-01 13:33N 34°37' E 135°21'4 3.9
2016-Dec-01 12:25N 34°37' E 135°26'0 0.0
2016-Dec-01 11:31N 34°37' E 135°26'0 0.0
2016-Dec-01 10:31N 34°37' E 135°26'0 0.0
2016-Dec-01 09:31N 34°37' E 135°26'0 0.0
2016-Dec-01 08:25N 34°37' E 135°26'0 0.0
2016-Dec-01 07:16N 34°37' E 135°26'0 0.0
2016-Dec-01 06:28N 34°37' E 135°26'0 0.0
2016-Dec-01 05:28N 34°37' E 135°26'0 0.0
2016-Dec-01 04:04N 34°37' E 135°26'0 0.0
2016-Dec-01 03:28N 34°37' E 135°26'0 0.0
2016-Dec-01 02:16N 34°37' E 135°26'0 0.0
2016-Dec-01 01:28N 34°37' E 135°26'0 0.0
2016-Dec-01 00:28N 34°37' E 135°26'0 0.0
2016-Nov-30 22:28N 34°37' E 135°26'0 0.0
2016-Nov-30 21:22N 34°37' E 135°26'5 6.3
2016-Nov-30 20:33N 34°36' E 135°20'1817.9
2016-Nov-30 19:33N 34°37' E 134°58'  

Dump ship's entire track history